createdAt,value
2018-06-08T00:00:16.567Z,21.75
2018-06-08T00:01:16.579Z,21.77
2018-06-08T00:02:37.589Z,21.76
2018-06-08T00:03:16.585Z,21.75
2018-06-08T00:04:16.603Z,21.75
2018-06-08T00:05:16.590Z,21.73
2018-06-08T00:06:16.630Z,21.72
2018-06-08T00:07:16.599Z,21.75
2018-06-08T00:08:37.617Z,21.62
2018-06-08T00:09:16.609Z,21.62
2018-06-08T00:10:16.698Z,21.66
2018-06-08T00:11:16.614Z,21.61
2018-06-08T00:12:16.623Z,21.69
2018-06-08T00:13:16.629Z,21.69
2018-06-08T00:14:37.647Z,21.57
2018-06-08T00:15:16.639Z,21.60
2018-06-08T00:16:16.634Z,21.57
2018-06-08T00:17:16.640Z,21.57
2018-06-08T00:18:16.645Z,21.55
2018-06-08T00:19:16.649Z,21.60
2018-06-08T00:20:37.758Z,21.57
2018-06-08T00:21:16.658Z,21.52
2018-06-08T00:22:16.663Z,21.51
2018-06-08T00:23:16.665Z,21.51
2018-06-08T00:24:16.672Z,21.42
2018-06-08T00:25:16.677Z,21.46
2018-06-08T00:26:37.690Z,21.52
2018-06-08T00:27:16.678Z,21.46
2018-06-08T00:28:16.685Z,21.54
2018-06-08T00:29:16.689Z,21.43
2018-06-08T00:30:16.696Z,21.45
2018-06-08T00:31:16.699Z,21.51
2018-06-08T00:32:37.718Z,21.46
2018-06-08T00:33:16.705Z,21.51
2018-06-08T00:34:16.712Z,21.52
2018-06-08T00:35:16.712Z,21.48
2018-06-08T00:36:16.723Z,21.48
2018-06-08T00:37:16.722Z,21.39
2018-06-08T00:38:37.740Z,21.39
2018-06-08T00:39:16.734Z,21.48
2018-06-08T00:40:16.801Z,21.39
2018-06-08T00:41:16.745Z,21.37
2018-06-08T00:42:16.745Z,21.39
2018-06-08T00:43:16.749Z,21.37
2018-06-08T00:44:37.760Z,21.46
2018-06-08T00:45:16.754Z,21.45
2018-06-08T00:46:16.758Z,21.45
2018-06-08T00:47:16.774Z,21.50
2018-06-08T00:48:16.770Z,21.48
2018-06-08T00:49:16.769Z,21.39
2018-06-08T00:50:37.862Z,21.40
2018-06-08T00:51:16.901Z,21.40
2018-06-08T00:52:16.789Z,21.43
2018-06-08T00:53:16.826Z,21.45
2018-06-08T00:54:16.792Z,21.36
2018-06-08T00:55:16.802Z,21.39
2018-06-08T00:56:37.809Z,21.36
2018-06-08T00:57:16.808Z,21.43
2018-06-08T00:58:16.812Z,21.36
2018-06-08T00:59:16.816Z,21.36
2018-06-08T01:00:16.818Z,21.45
2018-06-08T01:01:16.827Z,21.33
2018-06-08T01:02:37.833Z,21.45
2018-06-08T01:03:16.828Z,21.36
2018-06-08T01:04:16.837Z,21.33
2018-06-08T01:05:16.839Z,21.33
2018-06-08T01:06:16.840Z,21.36
2018-06-08T01:07:16.843Z,21.33
2018-06-08T01:08:37.858Z,21.35
2018-06-08T01:09:16.855Z,21.37
2018-06-08T01:10:16.856Z,21.40
2018-06-08T01:11:16.861Z,21.32
2018-06-08T01:12:16.868Z,21.29
2018-06-08T01:13:16.868Z,21.30
2018-06-08T01:14:37.878Z,21.33
2018-06-08T01:15:16.876Z,21.30
2018-06-08T01:16:16.881Z,21.30
2018-06-08T01:17:16.885Z,21.33
2018-06-08T01:18:16.889Z,21.30
2018-06-08T01:19:16.891Z,21.33
2018-06-08T01:20:37.968Z,21.33
2018-06-08T01:21:16.901Z,21.27
2018-06-08T01:22:17.299Z,21.29
2018-06-08T01:23:16.909Z,21.30
2018-06-08T01:24:16.913Z,21.30
2018-06-08T01:25:16.917Z,21.25
2018-06-08T01:26:37.932Z,21.35
2018-06-08T01:27:16.931Z,21.27
2018-06-08T01:28:16.934Z,21.35
2018-06-08T01:29:16.936Z,21.29
2018-06-08T01:30:16.940Z,21.30
2018-06-08T01:31:16.950Z,21.27
2018-06-08T01:32:37.956Z,21.24
2018-06-08T01:33:16.950Z,21.25
2018-06-08T01:34:16.957Z,21.25
2018-06-08T01:35:16.997Z,21.27
2018-06-08T01:36:16.961Z,21.29
2018-06-08T01:37:16.961Z,21.24
2018-06-08T01:38:37.983Z,21.24
2018-06-08T01:39:16.975Z,21.25
2018-06-08T01:40:17.009Z,21.25
2018-06-08T01:41:16.989Z,21.25
2018-06-08T01:42:16.987Z,21.21
2018-06-08T01:43:16.986Z,21.20
2018-06-08T01:44:38.013Z,21.17
2018-06-08T01:45:16.998Z,21.17
2018-06-08T01:46:17.001Z,21.17
2018-06-08T01:47:17.003Z,21.18
2018-06-08T01:48:17.029Z,21.15
2018-06-08T01:49:17.012Z,21.14
2018-06-08T01:50:38.066Z,21.05
2018-06-08T01:51:17.022Z,21.06
2018-06-08T01:52:17.027Z,21.15
2018-06-08T01:53:17.679Z,21.06
2018-06-08T01:54:17.029Z,21.06
2018-06-08T01:55:17.041Z,21.02
2018-06-08T01:56:38.050Z,21.00
2018-06-08T01:57:17.041Z,21.18
2018-06-08T01:58:17.049Z,21.20
2018-06-08T01:59:17.050Z,21.12
2018-06-08T02:00:17.053Z,21.03
2018-06-08T02:01:17.057Z,21.03
2018-06-08T02:02:38.072Z,21.09
2018-06-08T02:03:17.072Z,21.03
2018-06-08T02:04:17.067Z,21.07
2018-06-08T02:05:17.072Z,20.97
2018-06-08T02:06:17.076Z,21.03
2018-06-08T02:07:17.079Z,21.02
2018-06-08T02:08:38.097Z,21.05
2018-06-08T02:09:17.091Z,20.99
2018-06-08T02:10:17.091Z,20.92
2018-06-08T02:11:17.094Z,21.02
2018-06-08T02:12:17.101Z,20.93
2018-06-08T02:13:17.108Z,20.84
2018-06-08T02:14:38.119Z,20.88
2018-06-08T02:15:17.123Z,20.84
2018-06-08T02:16:17.113Z,20.81
2018-06-08T02:17:17.114Z,20.82
2018-06-08T02:18:17.120Z,20.75
2018-06-08T02:19:17.123Z,20.74
2018-06-08T02:20:38.165Z,20.74
2018-06-08T02:21:17.130Z,20.80
2018-06-08T02:22:17.140Z,20.77
2018-06-08T02:23:17.139Z,20.77
2018-06-08T02:24:18.082Z,20.75
2018-06-08T02:25:17.150Z,20.72
2018-06-08T02:26:38.160Z,20.77
2018-06-08T02:27:17.153Z,20.69
2018-06-08T02:28:17.160Z,20.63
2018-06-08T02:29:17.162Z,20.62
2018-06-08T02:30:17.169Z,20.58
2018-06-08T02:31:17.169Z,20.58
2018-06-08T02:32:38.179Z,20.63
2018-06-08T02:33:17.180Z,20.51
2018-06-08T02:34:17.179Z,20.51
2018-06-08T02:35:17.191Z,20.47
2018-06-08T02:36:17.192Z,20.44
2018-06-08T02:37:17.190Z,20.41
2018-06-08T02:38:38.205Z,20.44
2018-06-08T02:39:17.202Z,20.43
2018-06-08T02:40:17.199Z,20.43
2018-06-08T02:41:17.203Z,20.31
2018-06-08T02:42:17.234Z,20.31
2018-06-08T02:43:17.215Z,20.29
2018-06-08T02:44:38.245Z,20.39
2018-06-08T02:45:17.217Z,20.32
2018-06-08T02:46:17.221Z,20.16
2018-06-08T02:47:17.225Z,20.24
2018-06-08T02:48:17.236Z,20.21
2018-06-08T02:49:17.240Z,20.24
2018-06-08T02:50:38.268Z,20.13
2018-06-08T02:51:17.237Z,20.18
2018-06-08T02:52:17.244Z,20.19
2018-06-08T02:53:17.256Z,20.10
2018-06-08T02:54:17.248Z,20.10
2018-06-08T02:55:17.267Z,20.18
2018-06-08T02:56:38.274Z,20.13
2018-06-08T02:57:17.260Z,20.14
2018-06-08T02:58:17.265Z,20.13
2018-06-08T02:59:17.268Z,20.11
2018-06-08T03:00:17.271Z,20.10
2018-06-08T03:01:17.277Z,20.14
2018-06-08T03:02:38.286Z,20.10
2018-06-08T03:03:17.285Z,20.09
2018-06-08T03:04:17.283Z,20.14
2018-06-08T03:05:17.312Z,20.13
2018-06-08T03:06:17.301Z,20.13
2018-06-08T03:07:17.293Z,20.11
2018-06-08T03:08:38.311Z,20.16
2018-06-08T03:09:17.305Z,20.11
2018-06-08T03:10:17.413Z,20.10
2018-06-08T03:11:17.309Z,20.11
2018-06-08T03:12:17.308Z,20.14
2018-06-08T03:13:17.310Z,20.10
2018-06-08T03:14:38.329Z,20.10
2018-06-08T03:15:17.320Z,20.09
2018-06-08T03:16:17.325Z,20.11
2018-06-08T03:17:17.327Z,20.09
2018-06-08T03:18:38.339Z,20.09
2018-06-08T03:19:38.340Z,20.02
2018-06-08T03:20:17.338Z,20.10
2018-06-08T03:21:17.344Z,20.02
2018-06-08T03:22:17.344Z,20.03
2018-06-08T03:23:17.351Z,20.07
2018-06-08T03:24:17.354Z,20.03
2018-06-08T03:25:38.365Z,20.09
2018-06-08T03:26:17.355Z,20.02
2018-06-08T03:27:17.357Z,20.04
2018-06-08T03:28:17.362Z,20.06
2018-06-08T03:29:17.365Z,20.03
2018-06-08T03:30:17.371Z,19.99
2018-06-08T03:31:38.377Z,20.03
2018-06-08T03:32:17.376Z,20.03
2018-06-08T03:33:17.375Z,20.04
2018-06-08T03:34:17.382Z,20.02
2018-06-08T03:35:17.386Z,20.00
2018-06-08T03:36:17.389Z,20.00
2018-06-08T03:37:38.405Z,20.03
2018-06-08T03:38:17.409Z,20.09
2018-06-08T03:39:17.393Z,20.06
2018-06-08T03:40:17.409Z,19.95
2018-06-08T03:41:17.402Z,20.09
2018-06-08T03:42:17.409Z,20.09
2018-06-08T03:43:38.420Z,20.10
2018-06-08T03:44:17.412Z,20.13
2018-06-08T03:45:17.414Z,20.13
2018-06-08T03:46:17.433Z,20.11
2018-06-08T03:47:17.432Z,20.06
2018-06-08T03:48:17.426Z,20.19
2018-06-08T03:49:38.438Z,20.22
2018-06-08T03:50:17.435Z,20.18
2018-06-08T03:51:17.439Z,20.14
2018-06-08T03:52:17.437Z,20.16
2018-06-08T03:53:17.442Z,20.14
2018-06-08T03:54:17.443Z,20.21
2018-06-08T03:55:38.459Z,20.10
2018-06-08T03:56:17.450Z,20.11
2018-06-08T03:57:17.453Z,20.13
2018-06-08T03:58:17.464Z,20.07
2018-06-08T03:59:17.459Z,20.07
2018-06-08T04:00:17.463Z,20.06
2018-06-08T04:01:38.481Z,20.02
2018-06-08T04:02:17.475Z,20.00
2018-06-08T04:03:17.477Z,20.07
2018-06-08T04:04:17.475Z,20.10
2018-06-08T04:05:17.485Z,19.99
2018-06-08T04:06:17.485Z,20.00
2018-06-08T04:07:39.343Z,20.04
2018-06-08T04:08:17.503Z,20.07
2018-06-08T04:09:17.491Z,20.14
2018-06-08T04:10:17.495Z,20.06
2018-06-08T04:11:17.497Z,20.04
2018-06-08T04:12:17.503Z,20.10
2018-06-08T04:13:38.517Z,20.10
2018-06-08T04:14:17.508Z,20.19
2018-06-08T04:15:17.512Z,20.21
2018-06-08T04:16:17.517Z,20.22
2018-06-08T04:17:17.518Z,20.18
2018-06-08T04:18:17.521Z,20.24
2018-06-08T04:19:38.532Z,20.19
2018-06-08T04:20:17.538Z,20.24
2018-06-08T04:21:17.543Z,20.22
2018-06-08T04:22:17.551Z,20.36
2018-06-08T04:23:17.536Z,20.34
2018-06-08T04:24:17.542Z,20.29
2018-06-08T04:25:38.658Z,20.32
2018-06-08T04:26:17.553Z,20.37
2018-06-08T04:27:17.607Z,20.48
2018-06-08T04:28:17.555Z,20.44
2018-06-08T04:29:17.556Z,20.50
2018-06-08T04:30:17.562Z,20.63
2018-06-08T04:31:38.583Z,20.63
2018-06-08T04:32:17.571Z,20.63
2018-06-08T04:33:17.575Z,20.59
2018-06-08T04:34:17.583Z,20.70
2018-06-08T04:35:17.579Z,20.74
2018-06-08T04:36:17.616Z,20.80
2018-06-08T04:37:38.594Z,20.87
2018-06-08T04:38:17.588Z,20.93
2018-06-08T04:39:17.607Z,20.88
2018-06-08T04:40:17.594Z,21.02
2018-06-08T04:41:17.596Z,21.00
2018-06-08T04:42:17.598Z,21.11
2018-06-08T04:43:38.613Z,21.11
2018-06-08T04:44:17.606Z,21.09
2018-06-08T04:45:17.625Z,21.02
2018-06-08T04:46:17.625Z,21.12
2018-06-08T04:47:17.617Z,21.18
2018-06-08T04:48:17.620Z,21.25
2018-06-08T04:49:38.637Z,21.30
2018-06-08T04:50:17.629Z,21.30
2018-06-08T04:51:17.630Z,21.40
2018-06-08T04:52:17.645Z,21.36
2018-06-08T04:53:17.635Z,21.46
2018-06-08T04:54:17.642Z,21.45
2018-06-08T04:55:38.655Z,21.52
2018-06-08T04:56:17.654Z,21.64
2018-06-08T04:57:17.652Z,21.64
2018-06-08T04:58:18.000Z,21.64
2018-06-08T04:59:17.662Z,21.73
2018-06-08T05:00:17.664Z,21.88
2018-06-08T05:01:38.682Z,21.82
2018-06-08T05:02:17.680Z,21.92
2018-06-08T05:03:17.683Z,21.99
2018-06-08T05:04:17.685Z,21.99
2018-06-08T05:05:17.686Z,22.14
2018-06-08T05:06:17.692Z,22.23
2018-06-08T05:07:38.705Z,22.38
2018-06-08T05:08:17.697Z,22.68
2018-06-08T05:09:17.701Z,22.90
2018-06-08T05:10:17.714Z,22.87
2018-06-08T05:11:17.738Z,22.91
2018-06-08T05:12:17.714Z,23.20
2018-06-08T05:13:38.734Z,23.37
2018-06-08T05:14:17.725Z,23.37
2018-06-08T05:15:17.727Z,23.46
2018-06-08T05:16:17.733Z,23.50
2018-06-08T05:17:17.734Z,23.77
2018-06-08T05:18:17.740Z,23.84
2018-06-08T05:19:38.756Z,23.69
2018-06-08T05:20:17.748Z,23.58
2018-06-08T05:21:17.754Z,23.66
2018-06-08T05:22:17.769Z,23.83
2018-06-08T05:23:17.766Z,24.10
2018-06-08T05:24:17.769Z,24.13
2018-06-08T05:25:38.783Z,24.26
2018-06-08T05:26:17.844Z,24.29
2018-06-08T05:27:17.782Z,24.29
2018-06-08T05:28:17.790Z,24.29
2018-06-08T05:29:18.389Z,24.33
2018-06-08T05:30:17.805Z,24.53
2018-06-08T05:31:38.815Z,24.53
2018-06-08T05:32:17.811Z,24.57
2018-06-08T05:33:17.811Z,24.74
2018-06-08T05:34:17.845Z,24.99
2018-06-08T05:35:17.822Z,25.04
2018-06-08T05:36:17.826Z,24.99
2018-06-08T05:37:38.845Z,24.86
2018-06-08T05:38:17.842Z,24.81
2018-06-08T05:39:17.848Z,24.70
2018-06-08T05:40:17.850Z,24.57
2018-06-08T05:41:17.858Z,24.42
2018-06-08T05:42:17.865Z,24.48
2018-06-08T05:43:38.872Z,24.47
2018-06-08T05:44:17.872Z,24.47
2018-06-08T05:45:17.876Z,24.40
2018-06-08T05:46:17.886Z,24.40
2018-06-08T05:47:17.887Z,24.28
2018-06-08T05:48:17.919Z,24.32
2018-06-08T05:49:38.911Z,24.43
2018-06-08T05:50:17.903Z,24.50
2018-06-08T05:51:17.914Z,24.68
2018-06-08T05:52:17.917Z,24.76
2018-06-08T05:53:17.917Z,24.92
2018-06-08T05:54:18.002Z,24.96
2018-06-08T05:55:38.939Z,25.01
2018-06-08T05:56:17.936Z,25.01
2018-06-08T05:57:17.941Z,25.03
2018-06-08T05:58:17.947Z,25.25
2018-06-08T05:59:17.953Z,25.48
2018-06-08T06:00:18.873Z,25.53
2018-06-08T06:01:38.973Z,25.50
2018-06-08T06:02:17.967Z,25.53
2018-06-08T06:03:17.973Z,25.48
2018-06-08T06:04:17.983Z,25.38
2018-06-08T06:05:18.008Z,25.32
2018-06-08T06:06:17.994Z,25.28
2018-06-08T06:07:39.008Z,25.14
2018-06-08T06:08:18.000Z,25.14
2018-06-08T06:09:18.006Z,25.06
2018-06-08T06:10:18.013Z,24.99
2018-06-08T06:11:18.016Z,25.16
2018-06-08T06:12:18.033Z,25.33
2018-06-08T06:13:39.040Z,25.54
2018-06-08T06:14:18.041Z,25.73
2018-06-08T06:15:18.038Z,25.75
2018-06-08T06:16:18.044Z,25.81
2018-06-08T06:17:18.050Z,25.95
2018-06-08T06:18:18.061Z,26.23
2018-06-08T06:19:39.084Z,26.31
2018-06-08T06:20:18.073Z,26.09
2018-06-08T06:21:18.074Z,25.78
2018-06-08T06:22:18.081Z,25.65
2018-06-08T06:23:18.086Z,25.58
2018-06-08T06:24:18.102Z,25.43
2018-06-08T06:25:39.107Z,25.32
2018-06-08T06:26:18.107Z,25.29
2018-06-08T06:27:18.106Z,25.26
2018-06-08T06:28:18.113Z,25.16
2018-06-08T06:29:18.119Z,25.21
2018-06-08T06:30:18.132Z,25.14
2018-06-08T06:31:39.494Z,25.04
2018-06-08T06:32:18.139Z,25.03
2018-06-08T06:33:18.141Z,24.85
2018-06-08T06:34:18.150Z,24.92
2018-06-08T06:35:18.183Z,24.89
2018-06-08T06:36:18.158Z,24.89
2018-06-08T06:37:39.185Z,24.86
2018-06-08T06:38:18.171Z,24.70
2018-06-08T06:39:18.217Z,24.78
2018-06-08T06:40:18.181Z,24.81
2018-06-08T06:41:18.195Z,24.89
2018-06-08T06:42:18.191Z,24.88
2018-06-08T06:43:39.212Z,24.88
2018-06-08T06:44:18.201Z,24.89
2018-06-08T06:45:18.211Z,24.85
2018-06-08T06:46:18.218Z,24.93
2018-06-08T06:47:18.219Z,24.85
2018-06-08T06:48:18.224Z,24.85
2018-06-08T06:49:39.244Z,24.96
2018-06-08T06:50:18.241Z,24.89
2018-06-08T06:51:18.245Z,24.88
2018-06-08T06:52:18.248Z,24.88
2018-06-08T06:53:18.252Z,24.95
2018-06-08T06:54:18.299Z,24.91
2018-06-08T06:55:39.277Z,24.92
2018-06-08T06:56:18.269Z,24.91
2018-06-08T06:57:18.284Z,24.96
2018-06-08T06:58:18.280Z,24.88
2018-06-08T06:59:18.282Z,24.91
2018-06-08T07:00:18.297Z,24.91
2018-06-08T07:01:39.310Z,24.88
2018-06-08T07:02:18.301Z,24.91
2018-06-08T07:03:18.307Z,24.96
2018-06-08T07:04:18.311Z,24.84
2018-06-08T07:05:18.317Z,24.89
2018-06-08T07:06:18.324Z,24.92
2018-06-08T07:07:39.344Z,24.96
2018-06-08T07:08:18.333Z,24.88
2018-06-08T07:09:18.339Z,24.89
2018-06-08T07:10:18.352Z,25.01
2018-06-08T07:11:18.348Z,25.03
2018-06-08T07:12:18.351Z,25.04
2018-06-08T07:13:39.374Z,25.10
2018-06-08T07:14:18.366Z,25.07
2018-06-08T07:15:18.585Z,25.13
2018-06-08T07:16:18.393Z,25.14
2018-06-08T07:17:18.382Z,25.17
2018-06-08T07:18:18.392Z,25.22
2018-06-08T07:19:39.404Z,25.16
2018-06-08T07:20:18.399Z,25.17
2018-06-08T07:21:18.406Z,25.16
2018-06-08T07:22:18.409Z,25.23
2018-06-08T07:23:18.413Z,25.29
2018-06-08T07:24:18.430Z,25.31
2018-06-08T07:25:39.471Z,25.31
2018-06-08T07:26:18.440Z,25.32
2018-06-08T07:27:18.440Z,25.41
2018-06-08T07:28:18.445Z,25.41
2018-06-08T07:29:18.446Z,25.41
2018-06-08T07:30:18.459Z,25.46
2018-06-08T07:31:39.579Z,25.44
2018-06-08T07:32:18.463Z,25.40
2018-06-08T07:33:18.470Z,25.48
2018-06-08T07:34:18.489Z,25.51
2018-06-08T07:35:18.485Z,25.58
2018-06-08T07:36:18.494Z,25.55
2018-06-08T07:37:39.502Z,25.55
2018-06-08T07:38:18.515Z,25.55
2018-06-08T07:39:18.501Z,25.63
2018-06-08T07:40:18.639Z,25.62
2018-06-08T07:41:18.553Z,25.59
2018-06-08T07:42:18.521Z,25.65
2018-06-08T07:43:40.221Z,25.66
2018-06-08T07:44:18.533Z,25.58
2018-06-08T07:45:18.534Z,25.77
2018-06-08T07:46:18.543Z,25.72
2018-06-08T07:47:18.548Z,25.83
2018-06-08T07:48:18.552Z,25.83
2018-06-08T07:49:39.573Z,25.81
2018-06-08T07:50:18.564Z,25.88
2018-06-08T07:51:18.575Z,25.93
2018-06-08T07:52:18.590Z,25.99
2018-06-08T07:53:18.591Z,25.99
2018-06-08T07:54:18.585Z,25.98
2018-06-08T07:55:39.600Z,25.93
2018-06-08T07:56:18.604Z,26.00
2018-06-08T07:57:18.605Z,26.06
2018-06-08T07:58:18.613Z,26.07
2018-06-08T07:59:18.699Z,26.18
2018-06-08T08:00:18.624Z,26.09
2018-06-08T08:01:39.651Z,26.21
2018-06-08T08:02:18.633Z,26.21
2018-06-08T08:03:18.643Z,26.28
2018-06-08T08:04:18.653Z,26.40
2018-06-08T08:05:18.653Z,26.43
2018-06-08T08:06:18.664Z,26.37
2018-06-08T08:07:39.673Z,26.33
2018-06-08T08:08:18.683Z,26.45
2018-06-08T08:09:18.726Z,26.55
2018-06-08T08:10:18.695Z,26.58
2018-06-08T08:11:18.685Z,26.59
2018-06-08T08:12:18.697Z,26.65
2018-06-08T08:13:39.714Z,26.68
2018-06-08T08:14:18.700Z,26.74
2018-06-08T08:15:18.713Z,26.83
2018-06-08T08:16:18.713Z,26.89
2018-06-08T08:17:18.724Z,26.83
2018-06-08T08:18:18.727Z,26.85
2018-06-08T08:19:39.749Z,26.92
2018-06-08T08:20:18.737Z,26.89
2018-06-08T08:21:18.763Z,27.00
2018-06-08T08:22:18.760Z,27.03
2018-06-08T08:23:18.755Z,26.93
2018-06-08T08:24:18.761Z,26.97
2018-06-08T08:25:39.792Z,27.08
2018-06-08T08:26:18.776Z,27.12
2018-06-08T08:27:18.781Z,27.21
2018-06-08T08:28:18.797Z,27.20
2018-06-08T08:29:18.794Z,27.37
2018-06-08T08:30:18.798Z,27.67
2018-06-08T08:31:39.811Z,28.07
2018-06-08T08:32:18.818Z,28.30
2018-06-08T08:33:18.820Z,28.52
2018-06-08T08:34:18.980Z,29.01
2018-06-08T08:35:18.829Z,29.61
2018-06-08T08:36:18.843Z,30.15
2018-06-08T08:37:39.854Z,30.77
2018-06-08T08:38:18.851Z,31.21
2018-06-08T08:39:18.858Z,31.55
2018-06-08T08:40:18.867Z,31.97
2018-06-08T08:41:18.876Z,32.43
2018-06-08T08:42:18.879Z,32.63
2018-06-08T08:43:39.907Z,32.97
2018-06-08T08:44:18.894Z,33.24
2018-06-08T08:45:18.935Z,33.49
2018-06-08T08:46:18.909Z,33.52
2018-06-08T08:47:18.924Z,33.57
2018-06-08T08:48:18.962Z,33.61
2018-06-08T08:49:39.951Z,33.74
2018-06-08T08:50:19.032Z,33.73
2018-06-08T08:51:18.981Z,33.80
2018-06-08T08:52:18.968Z,33.74
2018-06-08T08:53:19.026Z,33.53
2018-06-08T08:54:18.978Z,33.64
2018-06-08T08:55:39.997Z,33.52
2018-06-08T08:56:19.005Z,33.53
2018-06-08T08:57:19.006Z,33.49
2018-06-08T08:58:19.027Z,33.43
2018-06-08T08:59:19.029Z,33.46
2018-06-08T09:00:19.054Z,33.43
2018-06-08T09:01:40.073Z,33.47
2018-06-08T09:02:19.051Z,33.77
2018-06-08T09:03:19.059Z,33.79
2018-06-08T09:04:19.067Z,33.74
2018-06-08T09:05:19.339Z,33.80
2018-06-08T09:06:19.085Z,33.84
2018-06-08T09:07:40.105Z,34.02
2018-06-08T09:08:19.103Z,34.30
2018-06-08T09:09:19.114Z,34.61
2018-06-08T09:10:19.122Z,34.90
2018-06-08T09:11:19.151Z,35.11
2018-06-08T09:12:19.140Z,35.26
2018-06-08T09:13:40.167Z,35.22
2018-06-08T09:14:19.167Z,35.37
2018-06-08T09:15:19.200Z,35.61
2018-06-08T09:16:19.183Z,35.76
2018-06-08T09:17:19.188Z,35.68
2018-06-08T09:18:19.209Z,35.70
2018-06-08T09:19:40.222Z,35.73
2018-06-08T09:20:19.314Z,35.92
2018-06-08T09:21:19.242Z,36.08
2018-06-08T09:22:19.259Z,36.33
2018-06-08T09:23:19.254Z,36.52
2018-06-08T09:24:19.265Z,36.68
2018-06-08T09:25:40.304Z,36.96
2018-06-08T09:26:19.283Z,36.81
2018-06-08T09:27:19.344Z,36.74
2018-06-08T09:28:19.301Z,36.64
2018-06-08T09:29:19.327Z,36.68
2018-06-08T09:30:19.330Z,36.59
2018-06-08T09:31:40.349Z,36.88
2018-06-08T09:32:19.350Z,37.03
2018-06-08T09:33:19.375Z,36.89
2018-06-08T09:34:19.373Z,36.91
2018-06-08T09:35:19.380Z,37.30
2018-06-08T09:36:19.782Z,37.48
2018-06-08T09:37:40.414Z,37.39
2018-06-08T09:38:19.414Z,37.53
2018-06-08T09:39:19.434Z,37.87
2018-06-08T09:40:19.490Z,37.68
2018-06-08T09:41:19.457Z,37.56
2018-06-08T09:42:19.509Z,37.60
2018-06-08T09:43:40.485Z,37.72
2018-06-08T09:44:19.491Z,37.40
2018-06-08T09:45:19.502Z,37.10
2018-06-08T09:46:19.527Z,37.08
2018-06-08T09:47:19.532Z,37.10
2018-06-08T09:48:19.536Z,37.36
2018-06-08T09:49:40.641Z,37.36
2018-06-08T09:50:19.622Z,36.96
2018-06-08T09:51:19.572Z,36.93
2018-06-08T09:52:19.587Z,36.95
2018-06-08T09:53:19.593Z,36.98
2018-06-08T09:54:19.606Z,37.13
2018-06-08T09:55:40.631Z,36.70
2018-06-08T09:56:19.641Z,36.02
2018-06-08T09:57:19.647Z,36.02
2018-06-08T09:58:19.656Z,36.24
2018-06-08T09:59:19.670Z,36.47
2018-06-08T10:00:19.704Z,36.81
2018-06-08T10:01:40.702Z,37.36
2018-06-08T10:02:19.704Z,37.74
2018-06-08T10:03:19.730Z,38.23
2018-06-08T10:04:19.729Z,38.12
2018-06-08T10:05:19.816Z,38.08
2018-06-08T10:06:19.754Z,38.19
2018-06-08T10:07:40.776Z,38.55
2018-06-08T10:08:19.841Z,38.14
2018-06-08T10:09:19.820Z,37.74
2018-06-08T10:10:19.799Z,37.86
2018-06-08T10:11:19.818Z,37.75
2018-06-08T10:12:19.831Z,37.87
2018-06-08T10:13:40.850Z,37.68
2018-06-08T10:14:19.848Z,37.45
2018-06-08T10:15:19.862Z,37.28
2018-06-08T10:16:19.892Z,36.67
2018-06-08T10:17:19.889Z,36.20
2018-06-08T10:18:19.903Z,36.42
2018-06-08T10:19:40.929Z,36.51
2018-06-08T10:20:19.927Z,36.09
2018-06-08T10:21:19.945Z,36.37
2018-06-08T10:22:19.952Z,36.81
2018-06-08T10:23:19.958Z,37.44
2018-06-08T10:24:19.971Z,37.84
2018-06-08T10:25:40.995Z,37.99
2018-06-08T10:26:19.993Z,38.09
2018-06-08T10:27:20.034Z,38.24
2018-06-08T10:28:20.034Z,38.31
2018-06-08T10:29:20.028Z,38.11
2018-06-08T10:30:20.045Z,38.12
2018-06-08T10:31:41.069Z,38.20
2018-06-08T10:32:20.093Z,37.97
2018-06-08T10:33:20.082Z,37.86
2018-06-08T10:34:20.098Z,38.20
2018-06-08T10:35:20.110Z,38.55
2018-06-08T10:36:20.119Z,39.09
2018-06-08T10:37:41.150Z,39.53
2018-06-08T10:38:20.644Z,39.99
2018-06-08T10:39:20.168Z,40.09
2018-06-08T10:40:20.184Z,40.38
2018-06-08T10:41:20.193Z,40.68
2018-06-08T10:42:20.206Z,40.68
2018-06-08T10:43:41.236Z,40.68
2018-06-08T10:44:20.235Z,40.73
2018-06-08T10:45:20.246Z,40.82
2018-06-08T10:46:20.262Z,40.63
2018-06-08T10:47:20.275Z,40.82
2018-06-08T10:48:20.290Z,40.95
2018-06-08T10:49:41.354Z,41.03
2018-06-08T10:50:20.320Z,41.22
2018-06-08T10:51:20.608Z,41.10
2018-06-08T10:52:20.351Z,41.14
2018-06-08T10:53:20.700Z,41.25
2018-06-08T10:54:20.384Z,41.10
2018-06-08T10:55:41.413Z,40.68
2018-06-08T10:56:20.417Z,40.50
2018-06-08T10:57:20.433Z,40.61
2018-06-08T10:58:20.446Z,40.54
2018-06-08T10:59:20.459Z,40.81
2018-06-08T11:00:20.515Z,40.99
2018-06-08T11:01:41.506Z,40.80
2018-06-08T11:02:20.752Z,40.56
2018-06-08T11:03:20.527Z,40.47
2018-06-08T11:04:20.538Z,40.72
2018-06-08T11:05:20.564Z,40.75
2018-06-08T11:06:20.637Z,41.04
2018-06-08T11:07:41.630Z,40.90
2018-06-08T11:08:20.609Z,40.70
2018-06-08T11:09:21.076Z,40.46
2018-06-08T11:10:20.640Z,40.63
2018-06-08T11:11:20.649Z,40.72
2018-06-08T11:12:20.666Z,41.04
2018-06-08T11:13:41.693Z,41.40
2018-06-08T11:14:20.697Z,41.85
2018-06-08T11:15:20.715Z,41.98
2018-06-08T11:16:20.737Z,42.24
2018-06-08T11:17:20.774Z,42.41
2018-06-08T11:18:20.895Z,42.51
2018-06-08T11:19:41.791Z,42.32
2018-06-08T11:20:20.796Z,42.38
2018-06-08T11:21:20.809Z,42.57
2018-06-08T11:22:20.824Z,42.70
2018-06-08T11:23:20.843Z,42.89
2018-06-08T11:24:20.862Z,42.82
2018-06-08T11:25:41.891Z,42.60
2018-06-08T11:26:20.893Z,41.99
2018-06-08T11:27:20.910Z,41.55
2018-06-08T11:28:20.960Z,41.37
2018-06-08T11:29:20.940Z,41.22
2018-06-08T11:30:20.970Z,41.53
2018-06-08T11:31:42.014Z,41.91
2018-06-08T11:32:20.992Z,41.66
2018-06-08T11:33:21.008Z,40.68
2018-06-08T11:34:21.031Z,40.28
2018-06-08T11:35:21.042Z,40.05
2018-06-08T11:36:21.063Z,39.99
2018-06-08T11:37:42.091Z,40.12
2018-06-08T11:38:21.099Z,40.14
2018-06-08T11:39:21.145Z,40.35
2018-06-08T11:40:21.491Z,40.62
2018-06-08T11:41:21.144Z,40.96
2018-06-08T11:42:21.161Z,40.63
2018-06-08T11:43:42.190Z,40.33
2018-06-08T11:44:21.190Z,39.87
2018-06-08T11:45:21.205Z,39.33
2018-06-08T11:46:21.234Z,39.06
2018-06-08T11:47:21.241Z,39.38
2018-06-08T11:48:21.253Z,39.78
2018-06-08T11:49:42.281Z,39.74
2018-06-08T11:50:21.283Z,39.63
2018-06-08T11:51:21.295Z,40.15
2018-06-08T11:52:21.313Z,40.90
2018-06-08T11:53:21.331Z,41.02
2018-06-08T11:54:21.342Z,40.72
2018-06-08T11:55:42.375Z,40.14
2018-06-08T11:56:21.372Z,39.51
2018-06-08T11:57:21.395Z,39.43
2018-06-08T11:58:21.406Z,39.60
2018-06-08T11:59:23.037Z,39.63
2018-06-08T12:00:21.442Z,39.55
2018-06-08T12:01:42.519Z,39.60
2018-06-08T12:02:21.465Z,39.92
2018-06-08T12:03:21.484Z,40.24
2018-06-08T12:04:21.497Z,40.68
2018-06-08T12:05:21.516Z,40.33
2018-06-08T12:06:21.531Z,39.94
2018-06-08T12:07:42.563Z,39.89
2018-06-08T12:08:21.577Z,39.99
2018-06-08T12:09:21.576Z,39.99
2018-06-08T12:10:21.581Z,40.09
2018-06-08T12:11:21.932Z,40.58
2018-06-08T12:12:21.620Z,41.03
2018-06-08T12:13:42.646Z,41.45
2018-06-08T12:14:21.651Z,41.87
2018-06-08T12:15:21.662Z,42.38
2018-06-08T12:16:21.681Z,42.82
2018-06-08T12:17:21.707Z,43.03
2018-06-08T12:18:21.718Z,43.33
2018-06-08T12:19:43.361Z,43.65
2018-06-08T12:20:21.744Z,43.89
2018-06-08T12:21:21.774Z,43.27
2018-06-08T12:22:22.517Z,43.04
2018-06-08T12:23:21.797Z,43.18
2018-06-08T12:24:21.816Z,43.31
2018-06-08T12:25:42.851Z,42.67
2018-06-08T12:26:21.851Z,42.51
2018-06-08T12:27:21.865Z,42.74
2018-06-08T12:28:21.884Z,42.95
2018-06-08T12:29:21.900Z,43.13
2018-06-08T12:30:21.919Z,43.07
2018-06-08T12:31:42.950Z,43.20
2018-06-08T12:32:21.952Z,42.84
2018-06-08T12:33:21.971Z,42.13
2018-06-08T12:34:21.988Z,41.70
2018-06-08T12:35:22.013Z,41.06
2018-06-08T12:36:22.023Z,41.09
2018-06-08T12:37:43.055Z,41.04
2018-06-08T12:38:22.058Z,41.12
2018-06-08T12:39:22.084Z,41.53
2018-06-08T12:40:22.092Z,41.37
2018-06-08T12:41:22.115Z,41.65
2018-06-08T12:42:22.341Z,41.47
2018-06-08T12:43:43.157Z,41.29
2018-06-08T12:44:22.165Z,40.85
2018-06-08T12:45:22.229Z,40.66
2018-06-08T12:46:22.191Z,40.58
2018-06-08T12:47:22.208Z,40.54
2018-06-08T12:48:22.229Z,40.75
2018-06-08T12:49:43.259Z,41.15
2018-06-08T12:50:22.260Z,41.33
2018-06-08T12:51:22.313Z,41.26
2018-06-08T12:52:22.287Z,41.12